sensor_id;sensor_type;location;lat;lon;timestamp;temperature;humidity
16744;DHT22;71724;-33.900;151.182;2024-02-16T00:00:11;22.40;94.30
16744;DHT22;71724;-33.900;151.182;2024-02-16T00:02:39;22.40;94.30
16744;DHT22;71724;-33.900;151.182;2024-02-16T00:05:11;22.50;94.30
16744;DHT22;71724;-33.900;151.182;2024-02-16T00:07:39;22.50;94.40
16744;DHT22;71724;-33.900;151.182;2024-02-16T00:10:07;22.50;94.30
16744;DHT22;71724;-33.900;151.182;2024-02-16T00:12:36;22.50;94.20
16744;DHT22;71724;-33.900;151.182;2024-02-16T00:15:04;22.60;94.30
16744;DHT22;71724;-33.900;151.182;2024-02-16T00:17:31;22.60;94.30
16744;DHT22;71724;-33.900;151.182;2024-02-16T00:20:00;22.70;94.30
16744;DHT22;71724;-33.900;151.182;2024-02-16T00:22:28;22.80;94.30
16744;DHT22;71724;-33.900;151.182;2024-02-16T00:24:55;22.80;94.30
16744;DHT22;71724;-33.900;151.182;2024-02-16T00:27:23;22.80;94.30
16744;DHT22;71724;-33.900;151.182;2024-02-16T00:29:50;22.80;94.30
16744;DHT22;71724;-33.900;151.182;2024-02-16T00:32:17;22.80;94.30
16744;DHT22;71724;-33.900;151.182;2024-02-16T00:34:46;22.80;94.20
16744;DHT22;71724;-33.900;151.182;2024-02-16T00:37:13;22.80;94.20
16744;DHT22;71724;-33.900;151.182;2024-02-16T00:39:40;22.80;94.10
16744;DHT22;71724;-33.900;151.182;2024-02-16T00:42:08;22.80;94.10
16744;DHT22;71724;-33.900;151.182;2024-02-16T00:44:36;22.80;94.10
16744;DHT22;71724;-33.900;151.182;2024-02-16T00:47:05;22.80;94.00
16744;DHT22;71724;-33.900;151.182;2024-02-16T00:49:36;22.90;94.10
16744;DHT22;71724;-33.900;151.182;2024-02-16T00:52:07;22.90;94.00
16744;DHT22;71724;-33.900;151.182;2024-02-16T00:54:37;22.90;94.00
16744;DHT22;71724;-33.900;151.182;2024-02-16T00:57:10;22.90;94.00
16744;DHT22;71724;-33.900;151.182;2024-02-16T00:59:48;23.00;94.00
16744;DHT22;71724;-33.900;151.182;2024-02-16T01:02:17;23.00;94.00
16744;DHT22;71724;-33.900;151.182;2024-02-16T01:04:44;23.00;94.00
16744;DHT22;71724;-33.900;151.182;2024-02-16T01:07:17;23.10;94.00
16744;DHT22;71724;-33.900;151.182;2024-02-16T01:09:46;23.20;93.90
16744;DHT22;71724;-33.900;151.182;2024-02-16T01:12:21;23.20;94.10
16744;DHT22;71724;-33.900;151.182;2024-02-16T01:14:50;23.30;93.80
16744;DHT22;71724;-33.900;151.182;2024-02-16T01:17:18;23.30;93.60
16744;DHT22;71724;-33.900;151.182;2024-02-16T01:19:46;23.30;93.60
16744;DHT22;71724;-33.900;151.182;2024-02-16T01:22:20;23.30;93.60
16744;DHT22;71724;-33.900;151.182;2024-02-16T01:24:49;23.40;93.60
16744;DHT22;71724;-33.900;151.182;2024-02-16T01:27:18;23.50;93.40
16744;DHT22;71724;-33.900;151.182;2024-02-16T01:29:48;23.60;93.40
16744;DHT22;71724;-33.900;151.182;2024-02-16T01:32:32;23.70;93.40
16744;DHT22;71724;-33.900;151.182;2024-02-16T01:35:03;23.80;93.20
16744;DHT22;71724;-33.900;151.182;2024-02-16T01:37:32;23.80;93.00
16744;DHT22;71724;-33.900;151.182;2024-02-16T01:40:03;23.90;92.90
16744;DHT22;71724;-33.900;151.182;2024-02-16T01:42:31;23.90;92.70
16744;DHT22;71724;-33.900;151.182;2024-02-16T01:44:58;23.90;92.50
16744;DHT22;71724;-33.900;151.182;2024-02-16T01:47:25;24.00;92.60
16744;DHT22;71724;-33.900;151.182;2024-02-16T01:49:53;24.00;92.20
16744;DHT22;71724;-33.900;151.182;2024-02-16T01:52:20;24.00;92.20
16744;DHT22;71724;-33.900;151.182;2024-02-16T01:54:48;24.10;92.10
16744;DHT22;71724;-33.900;151.182;2024-02-16T01:57:15;24.20;92.20
16744;DHT22;71724;-33.900;151.182;2024-02-16T01:59:43;24.20;92.00
16744;DHT22;71724;-33.900;151.182;2024-02-16T02:02:12;24.30;92.00
16744;DHT22;71724;-33.900;151.182;2024-02-16T02:04:39;24.20;91.80
16744;DHT22;71724;-33.900;151.182;2024-02-16T02:07:16;24.30;91.60
16744;DHT22;71724;-33.900;151.182;2024-02-16T02:09:43;24.40;91.80
16744;DHT22;71724;-33.900;151.182;2024-02-16T02:12:11;24.40;91.40
16744;DHT22;71724;-33.900;151.182;2024-02-16T02:14:38;24.40;91.20
16744;DHT22;71724;-33.900;151.182;2024-02-16T02:17:06;24.50;91.40
16744;DHT22;71724;-33.900;151.182;2024-02-16T02:19:33;24.60;91.20
16744;DHT22;71724;-33.900;151.182;2024-02-16T02:22:00;24.70;91.00
16744;DHT22;71724;-33.900;151.182;2024-02-16T02:24:28;24.60;90.50
16744;DHT22;71724;-33.900;151.182;2024-02-16T02:26:55;24.70;89.90
16744;DHT22;71724;-33.900;151.182;2024-02-16T02:29:24;24.80;90.10
16744;DHT22;71724;-33.900;151.182;2024-02-16T02:31:51;24.80;89.50
16744;DHT22;71724;-33.900;151.182;2024-02-16T02:34:18;24.90;89.50
16744;DHT22;71724;-33.900;151.182;2024-02-16T02:36:47;25.00;89.40
16744;DHT22;71724;-33.900;151.182;2024-02-16T02:39:15;25.00;88.80
16744;DHT22;71724;-33.900;151.182;2024-02-16T02:41:42;25.00;88.50
16744;DHT22;71724;-33.900;151.182;2024-02-16T02:44:10;25.10;88.40
16744;DHT22;71724;-33.900;151.182;2024-02-16T02:46:37;25.10;88.30
16744;DHT22;71724;-33.900;151.182;2024-02-16T02:49:05;25.20;87.90
16744;DHT22;71724;-33.900;151.182;2024-02-16T02:51:32;25.30;87.70
16744;DHT22;71724;-33.900;151.182;2024-02-16T02:53:59;25.30;87.40
16744;DHT22;71724;-33.900;151.182;2024-02-16T02:56:27;25.40;86.40
16744;DHT22;71724;-33.900;151.182;2024-02-16T02:58:54;25.50;86.30
16744;DHT22;71724;-33.900;151.182;2024-02-16T03:01:22;25.50;86.20
16744;DHT22;71724;-33.900;151.182;2024-02-16T03:03:49;25.60;85.90
16744;DHT22;71724;-33.900;151.182;2024-02-16T03:06:20;25.70;85.60
16744;DHT22;71724;-33.900;151.182;2024-02-16T03:08:47;25.70;85.60
16744;DHT22;71724;-33.900;151.182;2024-02-16T03:11:15;25.80;84.90
16744;DHT22;71724;-33.900;151.182;2024-02-16T03:13:42;25.80;84.70
16744;DHT22;71724;-33.900;151.182;2024-02-16T03:16:09;25.80;84.60
16744;DHT22;71724;-33.900;151.182;2024-02-16T03:18:38;25.80;84.10
16744;DHT22;71724;-33.900;151.182;2024-02-16T03:21:05;25.90;84.00
16744;DHT22;71724;-33.900;151.182;2024-02-16T03:23:34;25.90;84.40
16744;DHT22;71724;-33.900;151.182;2024-02-16T03:26:01;25.80;84.10
16744;DHT22;71724;-33.900;151.182;2024-02-16T03:28:28;25.80;83.00
16744;DHT22;71724;-33.900;151.182;2024-02-16T03:30:56;25.80;82.80
16744;DHT22;71724;-33.900;151.182;2024-02-16T03:33:24;25.80;83.00
16744;DHT22;71724;-33.900;151.182;2024-02-16T03:35:51;25.80;82.10
16744;DHT22;71724;-33.900;151.182;2024-02-16T03:38:18;25.80;81.50
16744;DHT22;71724;-33.900;151.182;2024-02-16T03:40:46;25.90;82.00
16744;DHT22;71724;-33.900;151.182;2024-02-16T03:43:13;25.90;81.70
16744;DHT22;71724;-33.900;151.182;2024-02-16T03:45:40;26.00;81.70
16744;DHT22;71724;-33.900;151.182;2024-02-16T03:48:08;26.00;81.80
16744;DHT22;71724;-33.900;151.182;2024-02-16T03:50:35;26.00;81.50
16744;DHT22;71724;-33.900;151.182;2024-02-16T03:53:03;26.10;81.40
16744;DHT22;71724;-33.900;151.182;2024-02-16T03:55:30;26.20;81.80
16744;DHT22;71724;-33.900;151.182;2024-02-16T03:58:03;26.20;81.80
16744;DHT22;71724;-33.900;151.182;2024-02-16T04:00:30;26.20;81.40
16744;DHT22;71724;-33.900;151.182;2024-02-16T04:02:59;26.30;81.20
16744;DHT22;71724;-33.900;151.182;2024-02-16T04:05:26;26.30;81.30
16744;DHT22;71724;-33.900;151.182;2024-02-16T04:07:57;26.30;81.20
16744;DHT22;71724;-33.900;151.182;2024-02-16T04:10:28;26.30;81.50
16744;DHT22;71724;-33.900;151.182;2024-02-16T04:12:56;26.30;81.40
16744;DHT22;71724;-33.900;151.182;2024-02-16T04:15:23;26.30;81.60
16744;DHT22;71724;-33.900;151.182;2024-02-16T04:17:51;26.40;81.80
16744;DHT22;71724;-33.900;151.182;2024-02-16T04:20:19;26.40;81.20
16744;DHT22;71724;-33.900;151.182;2024-02-16T04:22:46;26.40;81.20
16744;DHT22;71724;-33.900;151.182;2024-02-16T04:25:14;26.40;81.30
16744;DHT22;71724;-33.900;151.182;2024-02-16T04:27:41;26.40;81.20
16744;DHT22;71724;-33.900;151.182;2024-02-16T04:30:09;26.50;81.30
16744;DHT22;71724;-33.900;151.182;2024-02-16T04:32:36;26.50;81.20
16744;DHT22;71724;-33.900;151.182;2024-02-16T04:35:04;26.50;81.20
16744;DHT22;71724;-33.900;151.182;2024-02-16T04:37:31;26.50;80.70
16744;DHT22;71724;-33.900;151.182;2024-02-16T04:39:59;26.60;81.10
16744;DHT22;71724;-33.900;151.182;2024-02-16T04:42:26;26.60;81.10
16744;DHT22;71724;-33.900;151.182;2024-02-16T04:44:54;26.60;81.30
16744;DHT22;71724;-33.900;151.182;2024-02-16T04:47:21;26.60;81.20
16744;DHT22;71724;-33.900;151.182;2024-02-16T04:49:48;26.60;81.10
16744;DHT22;71724;-33.900;151.182;2024-02-16T04:52:16;26.60;80.90
16744;DHT22;71724;-33.900;151.182;2024-02-16T04:54:43;26.50;81.20
16744;DHT22;71724;-33.900;151.182;2024-02-16T04:57:10;26.50;81.30
16744;DHT22;71724;-33.900;151.182;2024-02-16T04:59:38;26.50;81.60
16744;DHT22;71724;-33.900;151.182;2024-02-16T05:02:08;26.60;82.00
16744;DHT22;71724;-33.900;151.182;2024-02-16T05:04:36;26.50;81.30
16744;DHT22;71724;-33.900;151.182;2024-02-16T05:07:04;26.50;81.50
16744;DHT22;71724;-33.900;151.182;2024-02-16T05:09:35;26.50;81.50
16744;DHT22;71724;-33.900;151.182;2024-02-16T05:12:02;26.40;81.30
16744;DHT22;71724;-33.900;151.182;2024-02-16T05:14:30;26.30;81.60
16744;DHT22;71724;-33.900;151.182;2024-02-16T05:16:57;26.30;81.60
16744;DHT22;71724;-33.900;151.182;2024-02-16T05:19:32;26.30;81.60
16744;DHT22;71724;-33.900;151.182;2024-02-16T05:22:00;26.30;81.70
16744;DHT22;71724;-33.900;151.182;2024-02-16T05:24:28;26.30;82.00
16744;DHT22;71724;-33.900;151.182;2024-02-16T05:26:55;26.30;81.90
16744;DHT22;71724;-33.900;151.182;2024-02-16T05:29:23;26.30;82.20
16744;DHT22;71724;-33.900;151.182;2024-02-16T05:31:54;26.30;82.20
16744;DHT22;71724;-33.900;151.182;2024-02-16T05:34:21;26.30;81.90
16744;DHT22;71724;-33.900;151.182;2024-02-16T05:36:49;26.20;82.00
16744;DHT22;71724;-33.900;151.182;2024-02-16T05:39:17;26.10;82.40
16744;DHT22;71724;-33.900;151.182;2024-02-16T05:41:53;26.10;82.50
16744;DHT22;71724;-33.900;151.182;2024-02-16T05:44:20;26.00;82.70
16744;DHT22;71724;-33.900;151.182;2024-02-16T05:46:48;25.90;83.00
16744;DHT22;71724;-33.900;151.182;2024-02-16T05:49:16;25.90;83.00
16744;DHT22;71724;-33.900;151.182;2024-02-16T05:51:43;25.80;83.50
16744;DHT22;71724;-33.900;151.182;2024-02-16T05:54:30;25.90;83.60
16744;DHT22;71724;-33.900;151.182;2024-02-16T05:56:58;25.90;83.60
16744;DHT22;71724;-33.900;151.182;2024-02-16T05:59:25;25.90;83.60
16744;DHT22;71724;-33.900;151.182;2024-02-16T06:01:53;26.00;83.70
16744;DHT22;71724;-33.900;151.182;2024-02-16T06:04:20;26.00;83.90
16744;DHT22;71724;-33.900;151.182;2024-02-16T06:06:48;26.00;83.80
16744;DHT22;71724;-33.900;151.182;2024-02-16T06:09:15;26.10;83.80
16744;DHT22;71724;-33.900;151.182;2024-02-16T06:11:43;26.10;84.00
16744;DHT22;71724;-33.900;151.182;2024-02-16T06:14:10;26.00;84.10
16744;DHT22;71724;-33.900;151.182;2024-02-16T06:16:37;26.00;84.20
16744;DHT22;71724;-33.900;151.182;2024-02-16T06:19:05;26.00;84.20
16744;DHT22;71724;-33.900;151.182;2024-02-16T06:21:36;26.00;84.10
16744;DHT22;71724;-33.900;151.182;2024-02-16T06:24:03;25.90;83.90
16744;DHT22;71724;-33.900;151.182;2024-02-16T06:26:31;25.80;83.80
16744;DHT22;71724;-33.900;151.182;2024-02-16T06:28:58;25.80;83.80
16744;DHT22;71724;-33.900;151.182;2024-02-16T06:31:26;25.80;84.00
16744;DHT22;71724;-33.900;151.182;2024-02-16T06:33:53;25.70;83.90
16744;DHT22;71724;-33.900;151.182;2024-02-16T06:36:21;25.70;84.00
16744;DHT22;71724;-33.900;151.182;2024-02-16T06:38:48;25.60;83.80
16744;DHT22;71724;-33.900;151.182;2024-02-16T06:41:15;25.60;83.90
16744;DHT22;71724;-33.900;151.182;2024-02-16T06:43:43;25.60;84.10
16744;DHT22;71724;-33.900;151.182;2024-02-16T06:46:11;25.50;84.00
16744;DHT22;71724;-33.900;151.182;2024-02-16T06:48:41;25.50;84.30
16744;DHT22;71724;-33.900;151.182;2024-02-16T06:51:09;25.50;84.30
16744;DHT22;71724;-33.900;151.182;2024-02-16T06:53:36;25.50;84.30
16744;DHT22;71724;-33.900;151.182;2024-02-16T06:56:04;25.50;84.60
16744;DHT22;71724;-33.900;151.182;2024-02-16T06:58:31;25.40;84.60
16744;DHT22;71724;-33.900;151.182;2024-02-16T07:00:59;25.30;84.60
16744;DHT22;71724;-33.900;151.182;2024-02-16T07:03:30;25.40;84.70
16744;DHT22;71724;-33.900;151.182;2024-02-16T07:05:57;25.40;84.90
16744;DHT22;71724;-33.900;151.182;2024-02-16T07:08:24;25.40;84.90
16744;DHT22;71724;-33.900;151.182;2024-02-16T07:10:52;25.40;85.10
16744;DHT22;71724;-33.900;151.182;2024-02-16T07:13:19;25.40;85.20
16744;DHT22;71724;-33.900;151.182;2024-02-16T07:15:47;25.40;85.30
16744;DHT22;71724;-33.900;151.182;2024-02-16T07:18:18;25.30;85.30
16744;DHT22;71724;-33.900;151.182;2024-02-16T07:20:46;25.30;85.40
16744;DHT22;71724;-33.900;151.182;2024-02-16T07:23:30;25.30;85.40
16744;DHT22;71724;-33.900;151.182;2024-02-16T07:25:59;25.30;85.80
16744;DHT22;71724;-33.900;151.182;2024-02-16T07:28:31;25.30;85.70
16744;DHT22;71724;-33.900;151.182;2024-02-16T07:30:58;25.30;85.80
16744;DHT22;71724;-33.900;151.182;2024-02-16T07:33:26;25.30;85.80
16744;DHT22;71724;-33.900;151.182;2024-02-16T07:35:54;25.30;85.90
16744;DHT22;71724;-33.900;151.182;2024-02-16T07:38:23;25.30;86.00
16744;DHT22;71724;-33.900;151.182;2024-02-16T07:40:51;25.30;86.10
16744;DHT22;71724;-33.900;151.182;2024-02-16T07:43:18;25.20;86.10
16744;DHT22;71724;-33.900;151.182;2024-02-16T07:45:46;25.20;86.20
16744;DHT22;71724;-33.900;151.182;2024-02-16T07:48:13;25.20;86.40
16744;DHT22;71724;-33.900;151.182;2024-02-16T07:50:41;25.20;86.40
16744;DHT22;71724;-33.900;151.182;2024-02-16T07:53:08;25.20;86.60
16744;DHT22;71724;-33.900;151.182;2024-02-16T07:55:38;25.20;86.60
16744;DHT22;71724;-33.900;151.182;2024-02-16T07:58:05;25.20;86.80
16744;DHT22;71724;-33.900;151.182;2024-02-16T08:00:36;25.20;86.80
16744;DHT22;71724;-33.900;151.182;2024-02-16T08:03:26;25.20;86.90
16744;DHT22;71724;-33.900;151.182;2024-02-16T08:05:57;25.20;87.00
16744;DHT22;71724;-33.900;151.182;2024-02-16T08:08:35;25.20;87.00
16744;DHT22;71724;-33.900;151.182;2024-02-16T08:11:18;25.10;87.00
16744;DHT22;71724;-33.900;151.182;2024-02-16T08:13:48;25.10;87.10
16744;DHT22;71724;-33.900;151.182;2024-02-16T08:16:19;25.10;87.10
16744;DHT22;71724;-33.900;151.182;2024-02-16T08:18:47;25.10;87.20
16744;DHT22;71724;-33.900;151.182;2024-02-16T08:21:14;25.00;87.10
16744;DHT22;71724;-33.900;151.182;2024-02-16T08:23:43;25.10;87.30
16744;DHT22;71724;-33.900;151.182;2024-02-16T08:26:11;25.10;87.30
16744;DHT22;71724;-33.900;151.182;2024-02-16T08:28:38;25.10;87.20
16744;DHT22;71724;-33.900;151.182;2024-02-16T08:31:07;25.10;87.40
16744;DHT22;71724;-33.900;151.182;2024-02-16T08:33:34;25.10;87.40
16744;DHT22;71724;-33.900;151.182;2024-02-16T08:36:04;25.10;87.50
16744;DHT22;71724;-33.900;151.182;2024-02-16T08:38:36;25.00;87.60
16744;DHT22;71724;-33.900;151.182;2024-02-16T08:41:11;25.10;87.70
16744;DHT22;71724;-33.900;151.182;2024-02-16T08:43:45;25.00;87.70
16744;DHT22;71724;-33.900;151.182;2024-02-16T08:46:32;25.00;87.80
16744;DHT22;71724;-33.900;151.182;2024-02-16T08:49:18;25.00;87.80
16744;DHT22;71724;-33.900;151.182;2024-02-16T08:51:46;25.00;87.80
16744;DHT22;71724;-33.900;151.182;2024-02-16T08:54:14;25.00;87.90
16744;DHT22;71724;-33.900;151.182;2024-02-16T08:56:45;25.00;88.10
16744;DHT22;71724;-33.900;151.182;2024-02-16T08:59:12;25.00;88.10
16744;DHT22;71724;-33.900;151.182;2024-02-16T09:01:40;25.00;88.20
16744;DHT22;71724;-33.900;151.182;2024-02-16T09:04:07;25.00;88.30
16744;DHT22;71724;-33.900;151.182;2024-02-16T09:06:35;25.00;88.40
16744;DHT22;71724;-33.900;151.182;2024-02-16T09:09:03;25.00;88.50
16744;DHT22;71724;-33.900;151.182;2024-02-16T09:11:30;25.10;88.50
16744;DHT22;71724;-33.900;151.182;2024-02-16T09:13:58;25.00;88.50
16744;DHT22;71724;-33.900;151.182;2024-02-16T09:16:26;25.00;88.60
16744;DHT22;71724;-33.900;151.182;2024-02-16T09:18:54;25.10;88.60
16744;DHT22;71724;-33.900;151.182;2024-02-16T09:21:22;25.00;88.60
16744;DHT22;71724;-33.900;151.182;2024-02-16T09:23:56;25.00;88.70
16744;DHT22;71724;-33.900;151.182;2024-02-16T09:26:28;25.00;88.70
16744;DHT22;71724;-33.900;151.182;2024-02-16T09:29:00;25.00;88.90
16744;DHT22;71724;-33.900;151.182;2024-02-16T09:31:27;25.00;88.70
16744;DHT22;71724;-33.900;151.182;2024-02-16T09:33:55;25.00;88.80
16744;DHT22;71724;-33.900;151.182;2024-02-16T09:36:23;24.90;88.80
16744;DHT22;71724;-33.900;151.182;2024-02-16T09:38:50;24.90;88.90
16744;DHT22;71724;-33.900;151.182;2024-02-16T09:41:17;24.90;89.00
16744;DHT22;71724;-33.900;151.182;2024-02-16T09:43:45;24.90;89.00
16744;DHT22;71724;-33.900;151.182;2024-02-16T09:46:12;24.90;89.10
16744;DHT22;71724;-33.900;151.182;2024-02-16T09:48:40;24.90;89.10
16744;DHT22;71724;-33.900;151.182;2024-02-16T09:51:10;24.90;89.20
16744;DHT22;71724;-33.900;151.182;2024-02-16T09:53:38;24.90;89.10
16744;DHT22;71724;-33.900;151.182;2024-02-16T09:56:08;24.90;89.20
16744;DHT22;71724;-33.900;151.182;2024-02-16T09:58:38;24.80;88.90
16744;DHT22;71724;-33.900;151.182;2024-02-16T10:01:16;24.90;89.00
16744;DHT22;71724;-33.900;151.182;2024-02-16T10:03:45;24.80;88.90
16744;DHT22;71724;-33.900;151.182;2024-02-16T10:06:13;24.80;89.10
16744;DHT22;71724;-33.900;151.182;2024-02-16T10:11:21;24.80;88.80
16744;DHT22;71724;-33.900;151.182;2024-02-16T10:13:58;24.80;89.00
16744;DHT22;71724;-33.900;151.182;2024-02-16T10:16:26;24.80;88.60
16744;DHT22;71724;-33.900;151.182;2024-02-16T10:19:06;24.80;88.60
16744;DHT22;71724;-33.900;151.182;2024-02-16T10:21:37;24.80;88.70
16744;DHT22;71724;-33.900;151.182;2024-02-16T10:24:11;24.80;88.70
16744;DHT22;71724;-33.900;151.182;2024-02-16T10:26:44;24.80;88.40
16744;DHT22;71724;-33.900;151.182;2024-02-16T10:29:12;24.70;88.40
16744;DHT22;71724;-33.900;151.182;2024-02-16T10:31:41;24.70;88.50
16744;DHT22;71724;-33.900;151.182;2024-02-16T10:34:09;24.70;88.60
16744;DHT22;71724;-33.900;151.182;2024-02-16T10:36:38;24.70;88.50
16744;DHT22;71724;-33.900;151.182;2024-02-16T10:39:20;24.70;88.50
16744;DHT22;71724;-33.900;151.182;2024-02-16T10:41:50;24.70;88.60
16744;DHT22;71724;-33.900;151.182;2024-02-16T10:44:18;24.70;88.70
16744;DHT22;71724;-33.900;151.182;2024-02-16T10:46:45;24.70;88.70
16744;DHT22;71724;-33.900;151.182;2024-02-16T10:49:14;24.70;88.70
16744;DHT22;71724;-33.900;151.182;2024-02-16T10:51:48;24.70;88.80
16744;DHT22;71724;-33.900;151.182;2024-02-16T10:54:23;24.70;88.90
16744;DHT22;71724;-33.900;151.182;2024-02-16T10:56:54;24.70;88.90
16744;DHT22;71724;-33.900;151.182;2024-02-16T10:59:23;24.70;88.90
16744;DHT22;71724;-33.900;151.182;2024-02-16T11:02:00;24.70;88.90
16744;DHT22;71724;-33.900;151.182;2024-02-16T11:04:45;24.70;88.90
16744;DHT22;71724;-33.900;151.182;2024-02-16T11:07:18;24.70;88.90
16744;DHT22;71724;-33.900;151.182;2024-02-16T11:09:47;24.70;88.90
16744;DHT22;71724;-33.900;151.182;2024-02-16T11:12:24;24.70;89.00
16744;DHT22;71724;-33.900;151.182;2024-02-16T11:15:02;24.70;89.00
16744;DHT22;71724;-33.900;151.182;2024-02-16T11:17:37;24.70;89.10
16744;DHT22;71724;-33.900;151.182;2024-02-16T11:20:10;24.70;89.10
16744;DHT22;71724;-33.900;151.182;2024-02-16T11:22:41;24.70;89.00
16744;DHT22;71724;-33.900;151.182;2024-02-16T11:25:10;24.70;89.00
16744;DHT22;71724;-33.900;151.182;2024-02-16T11:27:42;24.70;89.00
16744;DHT22;71724;-33.900;151.182;2024-02-16T11:30:12;24.70;89.10
16744;DHT22;71724;-33.900;151.182;2024-02-16T11:32:47;24.70;89.00
16744;DHT22;71724;-33.900;151.182;2024-02-16T11:35:25;24.70;89.10
16744;DHT22;71724;-33.900;151.182;2024-02-16T11:37:54;24.70;89.10
16744;DHT22;71724;-33.900;151.182;2024-02-16T11:40:22;24.70;89.00
16744;DHT22;71724;-33.900;151.182;2024-02-16T11:42:59;24.70;89.00
16744;DHT22;71724;-33.900;151.182;2024-02-16T11:45:28;24.70;88.90
16744;DHT22;71724;-33.900;151.182;2024-02-16T11:48:06;24.70;89.10
16744;DHT22;71724;-33.900;151.182;2024-02-16T11:50:34;24.70;89.20
16744;DHT22;71724;-33.900;151.182;2024-02-16T11:53:01;24.70;89.10
16744;DHT22;71724;-33.900;151.182;2024-02-16T11:55:28;24.80;89.10
16744;DHT22;71724;-33.900;151.182;2024-02-16T11:57:56;24.80;89.00
16744;DHT22;71724;-33.900;151.182;2024-02-16T12:00:23;24.70;89.00
16744;DHT22;71724;-33.900;151.182;2024-02-16T12:03:00;24.70;89.10
16744;DHT22;71724;-33.900;151.182;2024-02-16T12:05:27;24.80;89.10
16744;DHT22;71724;-33.900;151.182;2024-02-16T12:07:58;24.80;89.20
16744;DHT22;71724;-33.900;151.182;2024-02-16T12:10:26;24.80;89.20
16744;DHT22;71724;-33.900;151.182;2024-02-16T12:12:54;24.70;89.10
16744;DHT22;71724;-33.900;151.182;2024-02-16T12:15:22;24.80;89.40
16744;DHT22;71724;-33.900;151.182;2024-02-16T12:17:59;24.80;89.20
16744;DHT22;71724;-33.900;151.182;2024-02-16T12:20:29;24.80;89.30
16744;DHT22;71724;-33.900;151.182;2024-02-16T12:22:58;24.80;89.20
16744;DHT22;71724;-33.900;151.182;2024-02-16T12:25:28;24.70;89.20
16744;DHT22;71724;-33.900;151.182;2024-02-16T12:27:56;24.70;89.30
16744;DHT22;71724;-33.900;151.182;2024-02-16T12:30:23;24.70;89.40
16744;DHT22;71724;-33.900;151.182;2024-02-16T12:32:51;24.70;89.40
16744;DHT22;71724;-33.900;151.182;2024-02-16T12:35:19;24.70;89.60
16744;DHT22;71724;-33.900;151.182;2024-02-16T12:37:46;24.70;89.40
16744;DHT22;71724;-33.900;151.182;2024-02-16T12:40:14;24.70;89.50
16744;DHT22;71724;-33.900;151.182;2024-02-16T12:42:41;24.70;89.60
16744;DHT22;71724;-33.900;151.182;2024-02-16T12:45:09;24.80;89.50
16744;DHT22;71724;-33.900;151.182;2024-02-16T12:47:37;24.80;89.50
16744;DHT22;71724;-33.900;151.182;2024-02-16T12:50:04;24.80;89.50
16744;DHT22;71724;-33.900;151.182;2024-02-16T12:52:32;24.70;89.30
16744;DHT22;71724;-33.900;151.182;2024-02-16T12:55:01;24.70;89.30
16744;DHT22;71724;-33.900;151.182;2024-02-16T12:57:29;24.70;89.40
16744;DHT22;71724;-33.900;151.182;2024-02-16T12:59:56;24.70;89.30
16744;DHT22;71724;-33.900;151.182;2024-02-16T13:02:24;24.80;89.40
16744;DHT22;71724;-33.900;151.182;2024-02-16T13:04:51;24.80;89.20
16744;DHT22;71724;-33.900;151.182;2024-02-16T13:07:19;24.70;89.10
16744;DHT22;71724;-33.900;151.182;2024-02-16T13:09:51;24.70;89.30
16744;DHT22;71724;-33.900;151.182;2024-02-16T13:12:27;24.70;89.20
16744;DHT22;71724;-33.900;151.182;2024-02-16T13:14:55;24.70;89.20
16744;DHT22;71724;-33.900;151.182;2024-02-16T13:17:32;24.70;89.30
16744;DHT22;71724;-33.900;151.182;2024-02-16T13:20:03;24.70;89.20
16744;DHT22;71724;-33.900;151.182;2024-02-16T13:22:36;24.70;89.30
16744;DHT22;71724;-33.900;151.182;2024-02-16T13:25:15;24.70;89.40
16744;DHT22;71724;-33.900;151.182;2024-02-16T13:27:50;24.70;89.30
16744;DHT22;71724;-33.900;151.182;2024-02-16T13:30:19;24.60;89.20
16744;DHT22;71724;-33.900;151.182;2024-02-16T13:32:51;24.60;89.30
16744;DHT22;71724;-33.900;151.182;2024-02-16T13:35:22;24.60;89.20
16744;DHT22;71724;-33.900;151.182;2024-02-16T13:37:51;24.60;89.20
16744;DHT22;71724;-33.900;151.182;2024-02-16T13:40:20;24.60;89.10
16744;DHT22;71724;-33.900;151.182;2024-02-16T13:42:48;24.50;89.00
16744;DHT22;71724;-33.900;151.182;2024-02-16T13:45:16;24.50;89.20
16744;DHT22;71724;-33.900;151.182;2024-02-16T13:47:44;24.50;89.20
16744;DHT22;71724;-33.900;151.182;2024-02-16T13:50:13;24.50;89.30
16744;DHT22;71724;-33.900;151.182;2024-02-16T13:52:41;24.50;89.20
16744;DHT22;71724;-33.900;151.182;2024-02-16T13:55:15;24.50;89.40
16744;DHT22;71724;-33.900;151.182;2024-02-16T13:58:03;24.50;89.30
16744;DHT22;71724;-33.900;151.182;2024-02-16T14:00:39;24.50;89.20
16744;DHT22;71724;-33.900;151.182;2024-02-16T14:03:15;24.40;89.20
16744;DHT22;71724;-33.900;151.182;2024-02-16T14:05:48;24.50;89.30
16744;DHT22;71724;-33.900;151.182;2024-02-16T14:08:19;24.50;89.40
16744;DHT22;71724;-33.900;151.182;2024-02-16T14:10:47;24.40;89.40
16744;DHT22;71724;-33.900;151.182;2024-02-16T14:13:14;24.50;89.40
16744;DHT22;71724;-33.900;151.182;2024-02-16T14:15:42;24.40;89.40
16744;DHT22;71724;-33.900;151.182;2024-02-16T14:18:10;24.40;89.40
16744;DHT22;71724;-33.900;151.182;2024-02-16T14:20:37;24.40;89.40
16744;DHT22;71724;-33.900;151.182;2024-02-16T14:23:04;24.40;89.40
16744;DHT22;71724;-33.900;151.182;2024-02-16T14:25:34;24.40;89.50
16744;DHT22;71724;-33.900;151.182;2024-02-16T14:28:07;24.40;89.40
16744;DHT22;71724;-33.900;151.182;2024-02-16T14:30:34;24.40;89.40
16744;DHT22;71724;-33.900;151.182;2024-02-16T14:33:01;24.40;89.40
16744;DHT22;71724;-33.900;151.182;2024-02-16T14:35:31;24.30;89.40
16744;DHT22;71724;-33.900;151.182;2024-02-16T14:38:03;24.30;89.30
16744;DHT22;71724;-33.900;151.182;2024-02-16T14:40:33;24.30;89.30
16744;DHT22;71724;-33.900;151.182;2024-02-16T14:43:01;24.30;89.40
16744;DHT22;71724;-33.900;151.182;2024-02-16T14:45:29;24.30;89.40
16744;DHT22;71724;-33.900;151.182;2024-02-16T14:47:56;24.30;89.40
16744;DHT22;71724;-33.900;151.182;2024-02-16T14:50:24;24.40;89.40
16744;DHT22;71724;-33.900;151.182;2024-02-16T14:52:51;24.30;89.50
16744;DHT22;71724;-33.900;151.182;2024-02-16T14:55:19;24.30;89.40
16744;DHT22;71724;-33.900;151.182;2024-02-16T14:57:46;24.30;89.40
16744;DHT22;71724;-33.900;151.182;2024-02-16T15:00:14;24.30;89.30
16744;DHT22;71724;-33.900;151.182;2024-02-16T15:02:42;24.30;89.30